Time;durP1;ratioP1;P1;durP2;ratioP2;P2;SDS_P1;SDS_P2;PMS_P1;PMS_P2;Temp;Humidity;BMP_temperature;BMP_pressure;BME280_temperature;BME280_humidity;BME280_pressure;Samples;Min_cycle;Max_cycle;Signal;HPM_P1;HPM_P2
2022/03/13 00:00:18;;;;;;;;;;;10.90;32.80;;;;;;5047384;28;19956;-88
2022/03/13 00:02:45;;;;;;;;;;;10.90;32.70;;;;;;5056457;28;19978;-89
2022/03/13 00:05:16;;;;;;;;;;;10.80;32.70;;;;;;5038765;28;19920;-89
2022/03/13 00:07:49;;;;;;;;;;;10.80;32.80;;;;;;5039065;28;19916;-89
2022/03/13 00:10:19;;;;;;;;;;;10.80;32.80;;;;;;5039461;28;19913;-88
2022/03/13 00:12:46;;;;;;;;;;;10.70;32.80;;;;;;5039776;28;19921;-89
2022/03/13 00:15:12;;;;;;;;;;;10.70;32.90;;;;;;5054446;28;19963;-87
2022/03/13 00:17:38;;;;;;;;;;;10.70;32.90;;;;;;5077241;28;19912;-87
2022/03/13 00:20:05;;;;;;;;;;;10.60;32.90;;;;;;5059672;28;20370;-88
2022/03/13 00:22:31;;;;;;;;;;;10.60;32.90;;;;;;5077232;28;19909;-88
2022/03/13 00:24:59;;;;;;;;;;;10.60;32.90;;;;;;5059378;28;20368;-88
2022/03/13 00:27:25;;;;;;;;;;;10.50;33.00;;;;;;5077148;28;20378;-87
2022/03/13 00:29:51;;;;;;;;;;;10.50;33.00;;;;;;5078292;28;19916;-87
2022/03/13 00:32:17;;;;;;;;;;;10.40;33.00;;;;;;5059132;28;19912;-89
2022/03/13 00:34:43;;;;;;;;;;;10.40;33.10;;;;;;5077338;28;19923;-88
2022/03/13 00:37:09;;;;;;;;;;;10.40;33.00;;;;;;5057861;28;19908;-88
2022/03/13 00:39:36;;;;;;;;;;;10.30;33.10;;;;;;5058182;28;19922;-88
2022/03/13 00:42:02;;;;;;;;;;;10.30;33.10;;;;;;5059091;28;19982;-88
2022/03/13 00:44:27;;;;;;;;;;;10.30;33.00;;;;;;5058048;28;19960;-89
2022/03/13 00:46:53;;;;;;;;;;;10.20;33.00;;;;;;5058058;28;19912;-88
2022/03/13 00:49:18;;;;;;;;;;;10.20;33.00;;;;;;5075570;28;19916;-88
2022/03/13 00:51:44;;;;;;;;;;;10.10;33.00;;;;;;5075673;28;20664;-89
2022/03/13 00:54:09;;;;;;;;;;;10.10;33.10;;;;;;5058914;28;19928;-86
2022/03/13 00:56:35;;;;;;;;;;;10.00;33.10;;;;;;5058694;28;20023;-89
2022/03/13 00:59:01;;;;;;;;;;;10.00;33.10;;;;;;5058325;28;19908;-89
2022/03/13 01:01:26;;;;;;;;;;;9.90;33.10;;;;;;5058392;28;19924;-89
2022/03/13 01:03:52;;;;;;;;;;;9.90;33.20;;;;;;5058545;28;19919;-88
2022/03/13 01:06:18;;;;;;;;;;;9.80;33.30;;;;;;5058665;28;20061;-89
2022/03/13 01:08:46;;;;;;;;;;;9.80;33.30;;;;;;5057973;28;19913;-87
2022/03/13 01:11:13;;;;;;;;;;;9.80;33.40;;;;;;5058124;28;19917;-88
2022/03/13 01:13:38;;;;;;;;;;;9.80;33.40;;;;;;5058288;28;19959;-88
2022/03/13 01:16:21;;;;;;;;;;;9.70;33.50;;;;;;5058839;28;19917;-88
2022/03/13 01:18:47;;;;;;;;;;;9.70;33.50;;;;;;5058660;28;20285;-89
2022/03/13 01:21:13;;;;;;;;;;;9.70;33.50;;;;;;5058955;28;19982;-88
2022/03/13 01:23:39;;;;;;;;;;;9.60;33.50;;;;;;5076023;28;19912;-89
2022/03/13 01:26:36;;;;;;;;;;;9.60;33.40;;;;;;5076354;28;19921;-88
2022/03/13 01:29:12;;;;;;;;;;;9.50;33.40;;;;;;5057689;28;19940;-89
2022/03/13 01:31:39;;;;;;;;;;;9.50;33.40;;;;;;5068416;28;19917;-89
2022/03/13 01:34:05;;;;;;;;;;;9.40;33.40;;;;;;5067206;28;20403;-89
2022/03/13 01:36:31;;;;;;;;;;;9.40;33.40;;;;;;5065267;28;19917;-88
2022/03/13 01:38:57;;;;;;;;;;;9.40;33.50;;;;;;5046278;28;20264;-87
2022/03/13 01:41:24;;;;;;;;;;;9.40;33.50;;;;;;5049014;28;19924;-87
2022/03/13 01:43:50;;;;;;;;;;;9.50;33.40;;;;;;5052683;28;19931;-87
2022/03/13 01:46:15;;;;;;;;;;;9.50;33.30;;;;;;5059555;28;19916;-87
2022/03/13 01:48:51;;;;;;;;;;;9.40;33.30;;;;;;5064870;28;19908;-88
2022/03/13 01:51:17;;;;;;;;;;;9.30;33.30;;;;;;5065489;28;20009;-87
2022/03/13 01:53:43;;;;;;;;;;;9.30;33.30;;;;;;5047947;28;19912;-88
2022/03/13 01:56:08;;;;;;;;;;;9.30;33.30;;;;;;5075356;28;20012;-88
2022/03/13 01:58:33;;;;;;;;;;;9.20;33.40;;;;;;5075922;28;19919;-88
2022/03/13 02:00:59;;;;;;;;;;;9.20;33.40;;;;;;5059264;28;20283;-88
2022/03/13 02:03:26;;;;;;;;;;;9.20;33.40;;;;;;5076900;28;19935;-88
2022/03/13 02:05:51;;;;;;;;;;;9.10;33.50;;;;;;5059164;28;19978;-88
2022/03/13 02:08:18;;;;;;;;;;;9.10;33.60;;;;;;5058370;28;19908;-88
2022/03/13 02:10:43;;;;;;;;;;;9.10;33.60;;;;;;5059118;28;20402;-88
2022/03/13 02:13:10;;;;;;;;;;;9.10;33.60;;;;;;5077265;28;19920;-87
2022/03/13 02:15:37;;;;;;;;;;;9.10;33.60;;;;;;5058878;28;20276;-87
2022/03/13 02:18:03;;;;;;;;;;;9.10;33.70;;;;;;5059332;28;19908;-88
2022/03/13 02:20:28;;;;;;;;;;;9.10;33.60;;;;;;5048268;28;19962;-89
2022/03/13 02:22:59;;;;;;;;;;;9.10;33.60;;;;;;5064092;28;19912;-87
2022/03/13 02:25:25;;;;;;;;;;;9.10;33.60;;;;;;5083740;28;19943;-87
2022/03/13 02:27:51;;;;;;;;;;;9.00;33.60;;;;;;5064788;28;19916;-87
2022/03/13 02:30:21;;;;;;;;;;;9.00;33.60;;;;;;5064783;28;19917;-88
2022/03/13 02:32:47;;;;;;;;;;;9.00;33.60;;;;;;5084242;28;19913;-88
2022/03/13 02:35:12;;;;;;;;;;;8.90;33.60;;;;;;5065798;28;19916;-88
2022/03/13 02:37:39;;;;;;;;;;;8.90;33.60;;;;;;5082285;28;19916;-88
2022/03/13 02:40:05;;;;;;;;;;;8.80;33.70;;;;;;5082509;28;19920;-88
2022/03/13 02:42:30;;;;;;;;;;;8.80;33.80;;;;;;5064081;28;20291;-88
2022/03/13 02:44:55;;;;;;;;;;;8.80;33.80;;;;;;5082672;28;19916;-88
2022/03/13 02:47:21;;;;;;;;;;;8.70;33.90;;;;;;5082834;28;19915;-88
2022/03/13 02:49:46;;;;;;;;;;;8.60;33.90;;;;;;5082329;28;19999;-88
2022/03/13 02:52:12;;;;;;;;;;;8.60;34.00;;;;;;5083119;28;19917;-87
2022/03/13 02:54:37;;;;;;;;;;;8.60;34.00;;;;;;5082106;28;19948;-88
2022/03/13 02:57:03;;;;;;;;;;;8.50;34.00;;;;;;5064797;28;20360;-88
2022/03/13 02:59:29;;;;;;;;;;;8.50;34.10;;;;;;5081217;28;20276;-88
2022/03/13 03:01:54;;;;;;;;;;;8.40;34.20;;;;;;5064303;28;20310;-88
2022/03/13 03:04:22;;;;;;;;;;;8.40;34.20;;;;;;5063866;28;19909;-89
2022/03/13 03:06:53;;;;;;;;;;;8.40;34.30;;;;;;5082189;28;19909;-88
2022/03/13 03:09:19;;;;;;;;;;;8.30;34.30;;;;;;5081937;28;19913;-88
2022/03/13 03:11:44;;;;;;;;;;;8.20;34.30;;;;;;5062920;28;19962;-89
2022/03/13 03:14:11;;;;;;;;;;;8.20;34.40;;;;;;5082610;28;19908;-88
2022/03/13 03:16:37;;;;;;;;;;;8.20;34.50;;;;;;5064433;28;19959;-88
2022/03/13 03:19:02;;;;;;;;;;;8.20;34.50;;;;;;5082271;28;19908;-88
2022/03/13 03:21:28;;;;;;;;;;;8.10;34.70;;;;;;5065869;28;20048;-86
2022/03/13 03:23:53;;;;;;;;;;;8.00;34.80;;;;;;5063575;28;19916;-87
2022/03/13 03:26:19;;;;;;;;;;;8.00;34.80;;;;;;5063635;28;20011;-87
2022/03/13 03:28:45;;;;;;;;;;;8.00;34.90;;;;;;5063536;28;19916;-87
2022/03/13 03:31:10;;;;;;;;;;;8.00;34.90;;;;;;5059788;28;19916;-87
2022/03/13 03:33:36;;;;;;;;;;;8.00;34.90;;;;;;5060912;28;20037;-87
2022/03/13 03:36:01;;;;;;;;;;;7.90;34.90;;;;;;5060098;28;19989;-87
2022/03/13 03:38:27;;;;;;;;;;;7.90;35.00;;;;;;5059972;28;19944;-88
2022/03/13 03:40:52;;;;;;;;;;;7.90;35.00;;;;;;5078079;28;20062;-88
2022/03/13 03:43:18;;;;;;;;;;;8.00;35.00;;;;;;5078248;28;19908;-88
2022/03/13 03:45:43;;;;;;;;;;;8.00;35.00;;;;;;5060131;28;19921;-88
2022/03/13 03:48:09;;;;;;;;;;;8.00;35.00;;;;;;5059490;28;19916;-86
2022/03/13 03:50:34;;;;;;;;;;;8.00;35.00;;;;;;5077441;28;19959;-87
2022/03/13 03:53:00;;;;;;;;;;;8.00;34.90;;;;;;5055426;28;19951;-87
2022/03/13 03:55:26;;;;;;;;;;;7.90;34.90;;;;;;5046844;28;19913;-88
2022/03/13 03:57:52;;;;;;;;;;;7.90;34.90;;;;;;5050684;28;19916;-87
2022/03/13 04:00:18;;;;;;;;;;;7.90;34.90;;;;;;5048904;28;19909;-87
2022/03/13 04:02:43;;;;;;;;;;;7.80;34.90;;;;;;5066694;28;19939;-88
2022/03/13 04:05:09;;;;;;;;;;;7.80;34.80;;;;;;5056671;28;20357;-88
2022/03/13 04:07:36;;;;;;;;;;;7.80;34.70;;;;;;5052684;28;19920;-87
2022/03/13 04:10:02;;;;;;;;;;;7.80;34.70;;;;;;5055597;28;19916;-88
2022/03/13 04:12:29;;;;;;;;;;;7.80;34.80;;;;;;5051597;28;19920;-88
2022/03/13 04:14:54;;;;;;;;;;;7.80;34.80;;;;;;5048509;28;19913;-88
2022/03/13 04:17:20;;;;;;;;;;;7.70;34.80;;;;;;5048384;28;20004;-88
2022/03/13 04:19:46;;;;;;;;;;;7.70;34.80;;;;;;5047224;28;19966;-88
2022/03/13 04:22:12;;;;;;;;;;;7.80;34.80;;;;;;5053113;28;20363;-88
2022/03/13 04:24:37;;;;;;;;;;;7.80;34.80;;;;;;5045732;28;19904;-89
2022/03/13 04:27:03;;;;;;;;;;;7.80;34.80;;;;;;5038485;28;19960;-88
2022/03/13 04:29:29;;;;;;;;;;;7.70;34.80;;;;;;5057174;28;20007;-88
2022/03/13 04:31:55;;;;;;;;;;;7.70;34.70;;;;;;5039200;28;20364;-88
2022/03/13 04:34:21;;;;;;;;;;;7.70;34.70;;;;;;5056719;28;19916;-88
2022/03/13 04:36:47;;;;;;;;;;;7.70;34.80;;;;;;5038950;28;20391;-89
2022/03/13 04:39:13;;;;;;;;;;;7.80;34.70;;;;;;5054884;28;19909;-88
2022/03/13 04:41:39;;;;;;;;;;;7.70;34.70;;;;;;5058172;28;19917;-88
2022/03/13 04:44:06;;;;;;;;;;;7.80;34.70;;;;;;5059366;28;20006;-89
2022/03/13 04:46:31;;;;;;;;;;;7.80;34.70;;;;;;5059259;28;19935;-88
2022/03/13 04:48:57;;;;;;;;;;;7.70;34.70;;;;;;5058803;28;20010;-89
2022/03/13 04:51:23;;;;;;;;;;;7.70;34.60;;;;;;5058942;28;19916;-89
2022/03/13 04:53:49;;;;;;;;;;;7.70;34.60;;;;;;5077241;28;19917;-89
2022/03/13 04:56:14;;;;;;;;;;;7.70;34.60;;;;;;5076997;28;19959;-89
2022/03/13 04:58:40;;;;;;;;;;;7.70;34.60;;;;;;5059150;28;19916;-91
2022/03/13 05:01:05;;;;;;;;;;;7.70;34.60;;;;;;5059562;28;19908;-88
2022/03/13 05:03:34;;;;;;;;;;;7.70;34.50;;;;;;5076395;28;19924;-87
2022/03/13 05:06:00;;;;;;;;;;;7.70;34.50;;;;;;5057959;28;19920;-88
2022/03/13 05:08:26;;;;;;;;;;;7.70;34.50;;;;;;5076739;28;19912;-88
2022/03/13 05:10:52;;;;;;;;;;;7.70;34.40;;;;;;5058202;28;19919;-88
2022/03/13 05:13:18;;;;;;;;;;;7.70;34.40;;;;;;5076810;28;20318;-89
2022/03/13 05:15:44;;;;;;;;;;;7.60;34.30;;;;;;5058506;28;20257;-88
2022/03/13 05:18:09;;;;;;;;;;;7.60;34.40;;;;;;5067873;28;19921;-89
2022/03/13 05:20:35;;;;;;;;;;;7.60;34.30;;;;;;5065916;28;19923;-90
2022/03/13 05:23:05;;;;;;;;;;;7.50;34.30;;;;;;5043178;28;19916;-89
2022/03/13 05:25:34;;;;;;;;;;;7.50;34.30;;;;;;5057193;28;19909;-89
2022/03/13 05:28:00;;;;;;;;;;;7.50;34.30;;;;;;5038695;28;20288;-89
2022/03/13 05:30:25;;;;;;;;;;;7.40;34.30;;;;;;5056146;28;19953;-89
2022/03/13 05:32:51;;;;;;;;;;;7.40;34.40;;;;;;5038583;28;19905;-89
2022/03/13 05:35:17;;;;;;;;;;;7.40;34.40;;;;;;5056875;28;19916;-89
2022/03/13 05:37:43;;;;;;;;;;;7.40;34.50;;;;;;5041421;28;19916;-89
2022/03/13 05:40:13;;;;;;;;;;;7.40;34.50;;;;;;5058725;28;19959;-90
2022/03/13 05:42:39;;;;;;;;;;;7.40;34.40;;;;;;5057212;28;19923;-85
2022/03/13 05:45:05;;;;;;;;;;;7.30;34.40;;;;;;5073642;28;19959;-85
2022/03/13 05:47:30;;;;;;;;;;;7.30;34.40;;;;;;5056234;28;19966;-84
2022/03/13 05:49:56;;;;;;;;;;;7.30;34.40;;;;;;5073850;28;19970;-84
2022/03/13 05:52:21;;;;;;;;;;;7.30;34.50;;;;;;5055043;28;19989;-84
2022/03/13 05:54:47;;;;;;;;;;;7.30;34.60;;;;;;5054866;28;20015;-84
2022/03/13 05:57:12;;;;;;;;;;;7.30;34.80;;;;;;5055320;28;19962;-85
2022/03/13 05:59:38;;;;;;;;;;;7.40;35.10;;;;;;5055586;28;19909;-85
2022/03/13 06:02:04;;;;;;;;;;;7.60;35.20;;;;;;5073448;28;19962;-84
2022/03/13 06:04:32;;;;;;;;;;;7.80;35.30;;;;;;5073551;28;19913;-84
2022/03/13 06:06:57;;;;;;;;;;;8.00;35.40;;;;;;5073152;28;19960;-85
2022/03/13 06:09:23;;;;;;;;;;;8.20;35.30;;;;;;5073197;28;19920;-85
2022/03/13 06:11:48;;;;;;;;;;;8.40;35.10;;;;;;5049517;28;20423;-85
2022/03/13 06:14:14;;;;;;;;;;;8.70;34.90;;;;;;5060262;28;19916;-84
2022/03/13 06:16:39;;;;;;;;;;;9.00;34.60;;;;;;5073277;28;20300;-84
2022/03/13 06:19:05;;;;;;;;;;;9.30;34.50;;;;;;5073170;28;20003;-85
2022/03/13 06:21:30;;;;;;;;;;;9.50;34.40;;;;;;5072851;28;20406;-85
2022/03/13 06:23:56;;;;;;;;;;;9.80;34.20;;;;;;5073079;28;19923;-86
2022/03/13 06:26:21;;;;;;;;;;;10.10;33.90;;;;;;5055054;28;19931;-85
2022/03/13 06:28:47;;;;;;;;;;;10.40;33.50;;;;;;5073119;28;19924;-85
2022/03/13 06:31:12;;;;;;;;;;;10.70;33.20;;;;;;5055220;28;19915;-84
2022/03/13 06:33:38;;;;;;;;;;;11.10;32.90;;;;;;5054900;28;19924;-84
2022/03/13 06:36:04;;;;;;;;;;;11.40;32.60;;;;;;5054541;28;19939;-84
2022/03/13 06:38:29;;;;;;;;;;;11.80;32.10;;;;;;5072945;28;19908;-85
2022/03/13 06:40:55;;;;;;;;;;;12.10;31.90;;;;;;5054698;28;19932;-85
2022/03/13 06:43:21;;;;;;;;;;;12.40;31.50;;;;;;5054641;28;19958;-85
2022/03/13 06:45:46;;;;;;;;;;;12.80;31.20;;;;;;5072700;28;20325;-84
2022/03/13 06:48:14;;;;;;;;;;;13.20;30.90;;;;;;5072658;28;19913;-84
2022/03/13 06:50:39;;;;;;;;;;;13.60;30.80;;;;;;5054723;28;20016;-84
2022/03/13 06:53:05;;;;;;;;;;;14.00;30.50;;;;;;5054647;28;20363;-84
2022/03/13 06:55:30;;;;;;;;;;;14.30;29.80;;;;;;5054449;28;19913;-84
2022/03/13 06:57:56;;;;;;;;;;;14.80;29.50;;;;;;5054389;28;19961;-85
2022/03/13 07:00:21;;;;;;;;;;;15.10;28.90;;;;;;5054718;28;19912;-84
2022/03/13 07:02:47;;;;;;;;;;;15.50;28.60;;;;;;5054547;28;19909;-86
2022/03/13 07:05:13;;;;;;;;;;;15.90;28.30;;;;;;5072797;28;19913;-85
2022/03/13 07:07:38;;;;;;;;;;;16.30;28.30;;;;;;5075998;28;19909;-86
2022/03/13 07:10:06;;;;;;;;;;;16.70;27.70;;;;;;5058014;28;19912;-84
2022/03/13 07:12:31;;;;;;;;;;;17.10;27.10;;;;;;5057800;28;19925;-85
2022/03/13 07:14:57;;;;;;;;;;;17.50;26.30;;;;;;5075648;28;19916;-85
2022/03/13 07:17:23;;;;;;;;;;;17.80;26.10;;;;;;5058075;28;19962;-86
2022/03/13 07:19:49;;;;;;;;;;;18.20;26.30;;;;;;5076302;28;19944;-86
2022/03/13 07:22:15;;;;;;;;;;;18.60;26.10;;;;;;5076415;28;19917;-85
2022/03/13 07:24:41;;;;;;;;;;;19.10;25.70;;;;;;5076125;28;19908;-85
2022/03/13 07:27:06;;;;;;;;;;;19.50;25.20;;;;;;5075182;28;19917;-85
2022/03/13 07:29:32;;;;;;;;;;;19.80;24.50;;;;;;5057859;28;19961;-85
2022/03/13 07:31:57;;;;;;;;;;;20.10;23.60;;;;;;5075958;28;19928;-85
2022/03/13 07:34:26;;;;;;;;;;;20.30;22.70;;;;;;5075481;28;20006;-85
2022/03/13 07:36:52;;;;;;;;;;;20.40;22.00;;;;;;5057597;28;19917;-85
2022/03/13 07:39:21;;;;;;;;;;;20.60;21.80;;;;;;5075590;28;19909;-84
2022/03/13 07:41:50;;;;;;;;;;;20.70;21.80;;;;;;5075925;28;19920;-84
2022/03/13 07:44:15;;;;;;;;;;;21.00;21.70;;;;;;5057213;28;20272;-85
2022/03/13 07:46:41;;;;;;;;;;;21.30;21.80;;;;;;5057107;28;19919;-85
2022/03/13 07:49:06;;;;;;;;;;;21.70;21.30;;;;;;5075137;28;20330;-85
2022/03/13 07:51:34;;;;;;;;;;;21.80;20.50;;;;;;5056595;28;19921;-86
2022/03/13 07:54:00;;;;;;;;;;;21.90;19.90;;;;;;5075066;28;19912;-86
2022/03/13 07:56:25;;;;;;;;;;;21.90;19.80;;;;;;5057272;28;19916;-86
2022/03/13 07:58:50;;;;;;;;;;;22.10;19.90;;;;;;5075544;28;19909;-86
2022/03/13 08:01:16;;;;;;;;;;;22.30;19.50;;;;;;5057357;28;20007;-85
2022/03/13 08:03:44;;;;;;;;;;;22.30;19.00;;;;;;5071707;28;19912;-84
2022/03/13 08:06:10;;;;;;;;;;;22.40;18.70;;;;;;5057267;28;20371;-84
2022/03/13 08:08:36;;;;;;;;;;;22.60;18.80;;;;;;5056240;28;20001;-84
2022/03/13 08:11:01;;;;;;;;;;;22.70;18.20;;;;;;5040333;28;19916;-85
2022/03/13 08:13:27;;;;;;;;;;;22.70;18.20;;;;;;5057293;28;19912;-84
2022/03/13 08:15:52;;;;;;;;;;;22.80;17.80;;;;;;5074732;28;20323;-85
2022/03/13 08:18:18;;;;;;;;;;;22.80;17.70;;;;;;5073879;28;19997;-86
2022/03/13 08:20:43;;;;;;;;;;;22.80;17.60;;;;;;5074977;28;19921;-85
2022/03/13 08:23:08;;;;;;;;;;;22.90;17.50;;;;;;5075154;28;20280;-84
2022/03/13 08:25:36;;;;;;;;;;;22.90;17.60;;;;;;5040164;28;21900;-86
2022/03/13 08:28:02;;;;;;;;;;;23.00;17.00;;;;;;5071285;28;19908;-85
2022/03/13 08:30:28;;;;;;;;;;;22.90;17.10;;;;;;5064445;28;19995;-86
2022/03/13 08:32:54;;;;;;;;;;;22.90;16.90;;;;;;5068946;28;20011;-91
2022/03/13 08:35:20;;;;;;;;;;;22.90;17.00;;;;;;5037709;28;19962;-89
2022/03/13 08:37:46;;;;;;;;;;;23.00;17.10;;;;;;5058619;28;19909;-89
2022/03/13 08:40:13;;;;;;;;;;;23.10;17.40;;;;;;5075841;28;19991;-89
2022/03/13 08:42:38;;;;;;;;;;;23.30;16.90;;;;;;5076187;28;20546;-89
2022/03/13 08:45:05;;;;;;;;;;;23.20;16.70;;;;;;5057140;28;19966;-90
2022/03/13 08:47:30;;;;;;;;;;;23.30;16.70;;;;;;5036097;28;19924;-90
2022/03/13 08:49:56;;;;;;;;;;;23.30;16.50;;;;;;5039641;28;19913;-88
2022/03/13 08:52:22;;;;;;;;;;;23.30;16.50;;;;;;5056221;28;19978;-89
2022/03/13 08:54:47;;;;;;;;;;;23.30;16.30;;;;;;5057035;28;19947;-89
2022/03/13 08:57:13;;;;;;;;;;;23.30;16.30;;;;;;5056834;28;20279;-89
2022/03/13 08:59:39;;;;;;;;;;;23.30;16.30;;;;;;5057150;28;19920;-90
2022/03/13 09:02:05;;;;;;;;;;;23.30;16.60;;;;;;5075321;28;19916;-89
2022/03/13 09:04:30;;;;;;;;;;;23.50;16.80;;;;;;5057354;28;19928;-90
2022/03/13 09:06:56;;;;;;;;;;;23.70;16.60;;;;;;5056926;28;19928;-89
2022/03/13 09:09:22;;;;;;;;;;;23.90;16.20;;;;;;5056837;28;19912;-90
2022/03/13 09:11:48;;;;;;;;;;;24.00;15.80;;;;;;5056900;28;20276;-90
2022/03/13 09:14:14;;;;;;;;;;;24.20;16.20;;;;;;5036396;28;19921;-90
2022/03/13 09:16:40;;;;;;;;;;;24.40;16.20;;;;;;5037473;28;20314;-89
2022/03/13 09:19:06;;;;;;;;;;;24.50;15.40;;;;;;5036460;28;19913;-90
2022/03/13 09:21:34;;;;;;;;;;;24.40;15.00;;;;;;5037736;28;20015;-90
2022/03/13 09:24:02;;;;;;;;;;;24.40;15.30;;;;;;5037882;28;19962;-90
2022/03/13 09:26:28;;;;;;;;;;;24.50;15.20;;;;;;5057313;28;19917;-91
2022/03/13 09:28:54;;;;;;;;;;;24.50;15.20;;;;;;5041077;28;19917;-90
2022/03/13 09:31:19;;;;;;;;;;;24.50;14.80;;;;;;5038667;28;19956;-91
2022/03/13 09:33:45;;;;;;;;;;;24.50;14.70;;;;;;5038289;28;19917;-91
2022/03/13 09:36:11;;;;;;;;;;;24.60;14.70;;;;;;5069073;28;19920;-90
2022/03/13 09:38:36;;;;;;;;;;;24.60;14.60;;;;;;5064886;28;19962;-91
2022/03/13 09:41:02;;;;;;;;;;;24.60;15.00;;;;;;5045410;28;20344;-90
2022/03/13 09:43:28;;;;;;;;;;;24.70;14.80;;;;;;5046146;28;19908;-89
2022/03/13 09:45:54;;;;;;;;;;;24.80;15.00;;;;;;5058525;28;19975;-89
2022/03/13 09:48:20;;;;;;;;;;;24.90;14.80;;;;;;5066850;28;19967;-91
2022/03/13 09:50:48;;;;;;;;;;;25.00;14.80;;;;;;5056855;28;19926;-89
2022/03/13 09:53:13;;;;;;;;;;;25.20;14.60;;;;;;5072672;28;19928;-89
2022/03/13 09:55:39;;;;;;;;;;;25.30;14.60;;;;;;5073309;28;20265;-89
2022/03/13 09:58:10;;;;;;;;;;;25.40;14.20;;;;;;5073986;28;19912;-88
2022/03/13 10:00:37;;;;;;;;;;;25.50;14.10;;;;;;5068061;28;20606;-91
2022/03/13 10:03:08;;;;;;;;;;;25.50;14.00;;;;;;5059302;28;19916;-93
2022/03/13 10:05:44;;;;;;;;;;;25.50;14.00;;;;;;5059026;28;19916;-89
2022/03/13 10:08:10;;;;;;;;;;;25.70;14.10;;;;;;5057823;28;19909;-88
2022/03/13 10:10:42;;;;;;;;;;;25.80;14.00;;;;;;5075177;28;19921;-88
2022/03/13 10:13:08;;;;;;;;;;;25.70;13.90;;;;;;5057943;28;19912;-88
2022/03/13 10:15:41;;;;;;;;;;;25.80;14.10;;;;;;5058167;28;19916;-89
2022/03/13 10:18:10;;;;;;;;;;;25.90;13.90;;;;;;5059508;28;19922;-92
2022/03/13 10:20:38;;;;;;;;;;;26.10;14.10;;;;;;5080184;28;19916;-90
2022/03/13 10:23:10;;;;;;;;;;;26.30;13.90;;;;;;5060080;28;19981;-90
2022/03/13 10:25:38;;;;;;;;;;;26.40;13.70;;;;;;5058725;28;19923;-90
2022/03/13 10:28:12;;;;;;;;;;;26.40;13.40;;;;;;5042851;28;19964;-91
2022/03/13 10:30:38;;;;;;;;;;;26.40;13.90;;;;;;5077705;28;19912;-89
2022/03/13 10:33:05;;;;;;;;;;;26.50;13.60;;;;;;5059335;28;20256;-90
2022/03/13 10:35:31;;;;;;;;;;;26.40;13.30;;;;;;5077690;28;20647;-90
2022/03/13 10:37:56;;;;;;;;;;;26.30;13.20;;;;;;5076697;28;19955;-91
2022/03/13 10:40:31;;;;;;;;;;;26.30;13.50;;;;;;5060392;28;19951;-90
2022/03/13 10:43:03;;;;;;;;;;;26.40;13.60;;;;;;5063107;28;19919;-90
2022/03/13 10:45:39;;;;;;;;;;;26.50;13.50;;;;;;5063022;28;19923;-90
2022/03/13 10:48:14;;;;;;;;;;;26.60;13.10;;;;;;5063878;28;19912;-92
2022/03/13 10:50:47;;;;;;;;;;;26.50;13.10;;;;;;5063378;28;19924;-92
2022/03/13 10:53:13;;;;;;;;;;;26.40;13.10;;;;;;5063733;28;19912;-91
2022/03/13 10:55:39;;;;;;;;;;;26.40;13.50;;;;;;5064301;28;19923;-91
2022/03/13 10:58:05;;;;;;;;;;;26.50;13.20;;;;;;5063179;28;19912;-91
2022/03/13 11:00:31;;;;;;;;;;;26.70;13.30;;;;;;5052103;28;20048;-92
2022/03/13 11:03:14;;;;;;;;;;;26.80;13.10;;;;;;5073419;28;20357;-91
2022/03/13 11:05:40;;;;;;;;;;;27.00;13.40;;;;;;5081275;28;19974;-90
2022/03/13 11:08:07;;;;;;;;;;;27.20;13.00;;;;;;5081768;28;20290;-90
2022/03/13 11:10:36;;;;;;;;;;;27.20;13.10;;;;;;5081039;28;19916;-92
2022/03/13 11:13:03;;;;;;;;;;;27.20;12.90;;;;;;5063396;28;19912;-91
2022/03/13 11:15:30;;;;;;;;;;;27.20;12.70;;;;;;5060564;28;20016;-87
2022/03/13 11:17:56;;;;;;;;;;;27.00;12.50;;;;;;5053051;28;19956;-91
2022/03/13 11:20:22;;;;;;;;;;;26.90;12.60;;;;;;5079138;28;19915;-90
2022/03/13 11:22:48;;;;;;;;;;;26.90;12.70;;;;;;5079696;28;19916;-91
2022/03/13 11:25:13;;;;;;;;;;;27.00;12.70;;;;;;5061176;28;20109;-89
2022/03/13 11:27:40;;;;;;;;;;;27.10;12.60;;;;;;5044167;28;19915;-89
2022/03/13 11:30:10;;;;;;;;;;;27.10;12.50;;;;;;5053919;28;19909;-90
2022/03/13 11:32:49;;;;;;;;;;;27.20;12.90;;;;;;5060109;28;19947;-91
2022/03/13 11:35:14;;;;;;;;;;;27.20;13.00;;;;;;5055393;28;19967;-90
2022/03/13 11:37:41;;;;;;;;;;;27.20;13.20;;;;;;5060981;28;19963;-89
2022/03/13 11:40:09;;;;;;;;;;;27.40;13.30;;;;;;5062195;28;19909;-91
2022/03/13 11:42:55;;;;;;;;;;;27.60;13.30;;;;;;5061316;28;20330;-90
2022/03/13 11:45:24;;;;;;;;;;;27.80;13.00;;;;;;5060920;28;19918;-90
2022/03/13 11:47:50;;;;;;;;;;;27.80;12.90;;;;;;5078698;28;19917;-89
2022/03/13 11:50:16;;;;;;;;;;;27.80;12.70;;;;;;5078169;28;19924;-89
2022/03/13 11:52:42;;;;;;;;;;;27.80;12.90;;;;;;5059272;28;19920;-90
2022/03/13 11:55:13;;;;;;;;;;;27.80;12.90;;;;;;5043750;28;20261;-89
2022/03/13 11:57:43;;;;;;;;;;;27.80;13.00;;;;;;5059430;28;20306;-90
2022/03/13 12:00:15;;;;;;;;;;;27.90;12.70;;;;;;5078866;28;19912;-89
2022/03/13 12:02:40;;;;;;;;;;;27.70;12.70;;;;;;5059927;28;19995;-89
2022/03/13 12:05:24;;;;;;;;;;;27.60;12.80;;;;;;5078544;28;20399;-90
2022/03/13 12:07:54;;;;;;;;;;;27.60;13.00;;;;;;5058925;28;19908;-90
2022/03/13 12:10:37;;;;;;;;;;;27.70;12.90;;;;;;5060679;28;19916;-90
2022/03/13 12:13:06;;;;;;;;;;;27.50;12.80;;;;;;5056108;28;19912;-89
2022/03/13 12:15:32;;;;;;;;;;;27.40;13.00;;;;;;5079167;28;19935;-90
2022/03/13 12:17:57;;;;;;;;;;;27.40;13.10;;;;;;5046467;28;19916;-90
2022/03/13 12:20:24;;;;;;;;;;;27.50;13.00;;;;;;5055330;28;20287;-88
2022/03/13 12:22:53;;;;;;;;;;;27.50;13.00;;;;;;5073359;28;19916;-90
2022/03/13 12:25:23;;;;;;;;;;;27.50;13.20;;;;;;5078497;28;19923;-89
2022/03/13 12:27:49;;;;;;;;;;;27.50;13.20;;;;;;5077766;28;19919;-89
2022/03/13 12:30:26;;;;;;;;;;;27.50;13.40;;;;;;5079471;28;19916;-90
2022/03/13 12:33:04;;;;;;;;;;;27.60;13.60;;;;;;5062413;28;19916;-91
2022/03/13 12:35:31;;;;;;;;;;;27.60;13.30;;;;;;5079040;28;20663;-91
2022/03/13 12:38:02;;;;;;;;;;;27.50;13.30;;;;;;5060593;28;19962;-89
2022/03/13 12:40:46;;;;;;;;;;;27.50;13.40;;;;;;5065435;28;19944;-91
2022/03/13 12:43:14;;;;;;;;;;;27.50;13.20;;;;;;5031865;28;19919;-91
2022/03/13 12:45:51;;;;;;;;;;;27.30;13.10;;;;;;5048689;28;19916;-92
2022/03/13 12:48:18;;;;;;;;;;;27.20;13.50;;;;;;5081570;28;20354;-92
2022/03/13 12:50:47;;;;;;;;;;;27.10;13.40;;;;;;5081597;28;19932;-91
2022/03/13 12:53:26;;;;;;;;;;;27.00;13.50;;;;;;5060439;28;19912;-92
2022/03/13 12:55:53;;;;;;;;;;;26.80;13.40;;;;;;5077600;28;20295;-87
2022/03/13 12:58:19;;;;;;;;;;;26.70;13.60;;;;;;5074267;28;19912;-90
2022/03/13 13:00:45;;;;;;;;;;;26.40;13.70;;;;;;5080267;28;19920;-91
2022/03/13 13:03:10;;;;;;;;;;;26.20;13.70;;;;;;5060864;28;19912;-90
2022/03/13 13:05:47;;;;;;;;;;;26.10;13.90;;;;;;5061229;28;19962;-89
2022/03/13 13:08:12;;;;;;;;;;;25.80;13.90;;;;;;5059355;28;19954;-93
2022/03/13 13:10:38;;;;;;;;;;;25.80;14.20;;;;;;5069887;28;20348;-91
2022/03/13 13:13:08;;;;;;;;;;;25.60;14.50;;;;;;5079171;28;19917;-92
2022/03/13 13:15:34;;;;;;;;;;;25.60;14.40;;;;;;5064276;28;20028;-90
2022/03/13 13:18:00;;;;;;;;;;;25.50;14.40;;;;;;5061537;28;20378;-91
2022/03/13 13:20:27;;;;;;;;;;;25.40;14.60;;;;;;5071011;28;19987;-90
2022/03/13 13:23:18;;;;;;;;;;;25.40;14.60;;;;;;5046608;28;19916;-91
2022/03/13 13:25:48;;;;;;;;;;;25.00;14.60;;;;;;5059556;28;20104;-90
2022/03/13 13:28:13;;;;;;;;;;;24.30;15.20;;;;;;5061277;28;20387;-91
2022/03/13 13:30:40;;;;;;;;;;;23.70;15.60;;;;;;5062248;28;19917;-90
2022/03/13 13:33:12;;;;;;;;;;;23.30;16.10;;;;;;5061447;28;19919;-90
2022/03/13 13:35:38;;;;;;;;;;;22.80;16.30;;;;;;5058493;28;19916;-90
2022/03/13 13:38:03;;;;;;;;;;;22.40;16.70;;;;;;5061647;28;19919;-91
2022/03/13 13:40:32;;;;;;;;;;;22.20;16.90;;;;;;5059064;28;20376;-92
2022/03/13 13:42:59;;;;;;;;;;;22.00;17.10;;;;;;5060406;28;19944;-90
2022/03/13 13:45:26;;;;;;;;;;;21.70;17.30;;;;;;5061558;28;19962;-90
2022/03/13 13:47:52;;;;;;;;;;;21.60;17.70;;;;;;5061195;28;19909;-92
2022/03/13 13:50:21;;;;;;;;;;;21.50;17.60;;;;;;5046284;28;19923;-91
2022/03/13 13:53:01;;;;;;;;;;;21.30;17.90;;;;;;5072742;28;20306;-91
2022/03/13 13:55:27;;;;;;;;;;;21.10;17.90;;;;;;5056576;28;19970;-90
2022/03/13 13:58:12;;;;;;;;;;;21.00;18.30;;;;;;5079133;28;19909;-91
2022/03/13 14:00:57;;;;;;;;;;;20.90;18.30;;;;;;5065842;28;19916;-92
2022/03/13 14:03:31;;;;;;;;;;;20.80;18.30;;;;;;5020139;28;19916;-90
2022/03/13 14:05:57;;;;;;;;;;;20.70;18.40;;;;;;4992002;28;19960;-91
2022/03/13 14:08:22;;;;;;;;;;;20.70;18.50;;;;;;5016945;28;20314;-91
2022/03/13 14:10:48;;;;;;;;;;;20.70;18.70;;;;;;5009365;28;19925;-90
2022/03/13 14:13:13;;;;;;;;;;;20.70;18.80;;;;;;4996421;28;19972;-92
2022/03/13 14:15:40;;;;;;;;;;;20.70;19.00;;;;;;5005069;28;19928;-91
2022/03/13 14:18:05;;;;;;;;;;;20.70;19.00;;;;;;5010245;28;19964;-89
2022/03/13 14:20:31;;;;;;;;;;;20.70;19.10;;;;;;5015547;28;19921;-89